createdAt,value
2019-03-30T00:02:07.124Z,6.10
2019-03-30T00:04:37.977Z,6.00
2019-03-30T00:07:08.906Z,6.00
2019-03-30T00:09:39.855Z,5.90
2019-03-30T00:12:10.783Z,5.90
2019-03-30T00:14:41.668Z,6.00
2019-03-30T00:17:12.557Z,5.90
2019-03-30T00:19:43.395Z,5.90
2019-03-30T00:22:14.289Z,5.90
2019-03-30T00:24:45.159Z,5.80
2019-03-30T00:27:16.065Z,5.80
2019-03-30T00:29:47.200Z,5.90
2019-03-30T00:32:18.119Z,5.80
2019-03-30T00:34:49.006Z,5.80
2019-03-30T00:37:19.908Z,5.80
2019-03-30T00:39:50.752Z,5.70
2019-03-30T00:42:21.647Z,5.70
2019-03-30T00:44:52.504Z,5.60
2019-03-30T00:47:23.410Z,5.70
2019-03-30T00:49:54.387Z,5.60
2019-03-30T00:52:25.271Z,5.60
2019-03-30T00:54:57.399Z,5.50
2019-03-30T00:57:28.334Z,5.60
2019-03-30T00:59:59.179Z,5.50
2019-03-30T01:02:30.108Z,5.50
2019-03-30T01:05:01.053Z,5.50
2019-03-30T01:07:31.989Z,5.40
2019-03-30T01:10:02.840Z,5.40
2019-03-30T01:12:33.904Z,5.40
2019-03-30T01:15:05.399Z,5.40
2019-03-30T01:17:36.339Z,5.40
2019-03-30T01:20:08.334Z,5.30
2019-03-30T01:22:39.228Z,5.30
2019-03-30T01:25:10.345Z,5.20
2019-03-30T01:27:41.249Z,5.30
2019-03-30T01:30:22.483Z,5.20
2019-03-30T01:32:47.250Z,5.20
2019-03-30T01:35:18.138Z,5.30
2019-03-30T01:37:49.081Z,5.20
2019-03-30T01:40:19.941Z,5.10
2019-03-30T01:42:50.829Z,5.10
2019-03-30T01:45:21.650Z,5.20
2019-03-30T01:47:52.565Z,5.00
2019-03-30T01:50:23.589Z,5.00
2019-03-30T01:52:55.275Z,5.00
2019-03-30T01:55:26.130Z,4.90
2019-03-30T01:57:57.087Z,5.00
2019-03-30T02:00:27.942Z,5.00
2019-03-30T02:02:58.819Z,5.00
2019-03-30T02:05:29.715Z,5.00
2019-03-30T02:08:00.557Z,5.00
2019-03-30T02:10:45.185Z,5.00
2019-03-30T02:13:16.141Z,4.90
2019-03-30T02:15:47.087Z,4.90
2019-03-30T02:18:18.064Z,4.90
2019-03-30T02:20:49.034Z,4.80
2019-03-30T02:23:20.234Z,4.90
2019-03-30T02:25:52.058Z,4.90
2019-03-30T02:28:22.939Z,4.80
2019-03-30T02:30:53.781Z,4.80
2019-03-30T02:33:24.713Z,4.80
2019-03-30T02:35:55.569Z,4.80
2019-03-30T02:38:26.479Z,4.80
2019-03-30T02:40:57.357Z,4.80
2019-03-30T02:43:28.208Z,4.80
2019-03-30T02:45:59.058Z,4.80
2019-03-30T02:48:29.930Z,4.70
2019-03-30T02:51:00.786Z,4.80
2019-03-30T02:53:31.675Z,4.80
2019-03-30T02:56:02.640Z,4.70
2019-03-30T02:58:33.556Z,4.60
2019-03-30T03:01:04.378Z,4.60
2019-03-30T03:03:35.228Z,4.60
2019-03-30T03:06:07.062Z,4.60
2019-03-30T03:08:37.945Z,4.60
2019-03-30T03:11:08.788Z,4.60
2019-03-30T03:13:39.661Z,4.60
2019-03-30T03:16:10.498Z,4.50
2019-03-30T03:18:41.362Z,4.50
2019-03-30T03:21:12.232Z,4.50
2019-03-30T03:23:43.173Z,4.50
2019-03-30T03:26:14.036Z,4.50
2019-03-30T03:28:44.926Z,4.50
2019-03-30T03:31:15.770Z,4.40
2019-03-30T03:33:46.644Z,4.50
2019-03-30T03:36:17.481Z,4.50
2019-03-30T03:38:48.377Z,4.50
2019-03-30T03:41:19.211Z,4.40
2019-03-30T03:43:50.130Z,4.50
2019-03-30T03:46:20.951Z,4.50
2019-03-30T03:48:51.797Z,4.50
2019-03-30T03:51:26.147Z,4.50
2019-03-30T03:53:56.347Z,4.40
2019-03-30T03:56:28.676Z,4.40
2019-03-30T03:59:02.060Z,4.40
2019-03-30T04:01:35.456Z,4.40
2019-03-30T04:04:08.604Z,4.30
2019-03-30T04:06:41.355Z,4.20
2019-03-30T04:09:13.729Z,4.20
2019-03-30T04:11:46.332Z,4.20
2019-03-30T04:14:20.913Z,4.30
2019-03-30T04:16:51.753Z,4.20
2019-03-30T04:19:22.719Z,4.20
2019-03-30T04:21:53.547Z,4.20
2019-03-30T04:24:25.434Z,4.30
2019-03-30T04:26:56.255Z,4.20
2019-03-30T04:29:27.142Z,4.20
2019-03-30T04:31:58.006Z,4.30
2019-03-30T04:34:28.908Z,4.20
2019-03-30T04:36:59.728Z,4.20
2019-03-30T04:39:30.596Z,4.20
2019-03-30T04:42:01.425Z,4.20
2019-03-30T04:44:32.361Z,4.10
2019-03-30T04:47:03.177Z,4.10
2019-03-30T04:49:34.058Z,4.10
2019-03-30T04:52:04.871Z,4.10
2019-03-30T04:54:35.753Z,4.20
2019-03-30T04:57:06.597Z,4.10
2019-03-30T04:59:37.529Z,4.10
2019-03-30T05:02:08.387Z,4.00
2019-03-30T05:04:39.279Z,4.00
2019-03-30T05:07:10.131Z,4.00
2019-03-30T05:09:40.995Z,4.10
2019-03-30T05:12:11.836Z,4.10
2019-03-30T05:14:42.757Z,4.10
2019-03-30T05:17:14.569Z,4.10
2019-03-30T05:19:45.521Z,4.00
2019-03-30T05:22:16.696Z,3.90
2019-03-30T05:24:47.787Z,4.00
2019-03-30T05:27:18.636Z,4.00
2019-03-30T05:29:49.543Z,4.00
2019-03-30T05:32:20.393Z,4.00
2019-03-30T05:34:51.317Z,4.00
2019-03-30T05:37:22.143Z,4.00
2019-03-30T05:39:53.056Z,3.90
2019-03-30T05:42:23.911Z,4.00
2019-03-30T05:44:57.632Z,4.00
2019-03-30T05:47:27.282Z,4.10
2019-03-30T05:49:58.194Z,4.10
2019-03-30T05:52:29.053Z,4.10
2019-03-30T05:54:59.915Z,4.10
2019-03-30T05:57:30.795Z,4.10
2019-03-30T06:00:01.716Z,4.10
2019-03-30T06:02:33.748Z,4.10
2019-03-30T06:05:05.173Z,4.10
2019-03-30T06:07:36.009Z,4.10
2019-03-30T06:10:07.413Z,4.20
2019-03-30T06:12:38.288Z,4.20
2019-03-30T06:15:09.218Z,4.20
2019-03-30T06:17:40.999Z,4.20
2019-03-30T06:20:11.875Z,4.30
2019-03-30T06:22:42.751Z,4.40
2019-03-30T06:25:13.637Z,4.40
2019-03-30T06:27:44.528Z,4.40
2019-03-30T06:30:20.805Z,4.30
2019-03-30T06:32:51.713Z,4.30
2019-03-30T06:35:22.706Z,4.30
2019-03-30T06:37:53.575Z,4.40
2019-03-30T06:40:24.506Z,4.40
2019-03-30T06:42:55.379Z,4.40
2019-03-30T06:45:26.417Z,4.50
2019-03-30T06:47:57.229Z,4.60
2019-03-30T06:50:28.130Z,4.70
2019-03-30T06:52:59.103Z,4.60
2019-03-30T06:55:30.043Z,4.70
2019-03-30T06:58:00.957Z,4.70
2019-03-30T07:00:35.756Z,4.70
2019-03-30T07:03:07.559Z,4.90
2019-03-30T07:05:43.004Z,4.90
2019-03-30T07:08:15.896Z,4.90
2019-03-30T07:10:47.573Z,5.00
2019-03-30T07:13:18.515Z,5.00
2019-03-30T07:15:52.384Z,5.10
2019-03-30T07:18:23.255Z,5.10
2019-03-30T07:20:54.379Z,5.20
2019-03-30T07:23:25.232Z,5.20
2019-03-30T07:25:56.079Z,5.40
2019-03-30T07:28:26.992Z,5.60
2019-03-30T07:30:57.959Z,5.70
2019-03-30T07:33:29.815Z,5.70
2019-03-30T07:36:00.716Z,5.80
2019-03-30T07:38:31.688Z,6.00
2019-03-30T07:41:02.560Z,6.20
2019-03-30T07:43:33.434Z,6.20
2019-03-30T07:46:04.341Z,6.30
2019-03-30T07:48:35.217Z,6.40
2019-03-30T07:51:06.139Z,6.70
2019-03-30T07:53:44.501Z,6.80
2019-03-30T07:56:09.634Z,6.90
2019-03-30T07:58:40.738Z,7.00
2019-03-30T08:01:11.659Z,7.20
2019-03-30T08:03:42.513Z,7.40
2019-03-30T08:06:13.443Z,7.50
2019-03-30T08:08:44.326Z,7.80
2019-03-30T08:11:22.962Z,8.00
2019-03-30T08:13:53.841Z,8.40
2019-03-30T08:16:26.205Z,8.70
2019-03-30T08:18:58.807Z,9.20
2019-03-30T08:21:29.753Z,9.40
2019-03-30T08:24:00.659Z,9.60
2019-03-30T08:26:31.576Z,9.80
2019-03-30T08:29:02.473Z,10.00
2019-03-30T08:31:33.361Z,10.30
2019-03-30T08:34:04.217Z,10.50
2019-03-30T08:36:35.119Z,10.80
2019-03-30T08:39:07.693Z,10.80
2019-03-30T08:41:38.581Z,11.00
2019-03-30T08:44:09.434Z,11.20
2019-03-30T08:46:40.370Z,11.60
2019-03-30T08:49:11.246Z,11.80
2019-03-30T08:51:42.133Z,12.10
2019-03-30T08:54:12.973Z,12.20
2019-03-30T08:56:43.909Z,12.40
2019-03-30T08:59:14.899Z,12.40
2019-03-30T09:01:45.837Z,12.30
2019-03-30T09:04:16.805Z,12.50
2019-03-30T09:06:47.798Z,12.80
2019-03-30T09:09:18.710Z,12.90
2019-03-30T09:11:49.671Z,13.10
2019-03-30T09:14:20.527Z,13.30
2019-03-30T09:16:51.494Z,13.50
2019-03-30T09:19:22.358Z,13.60
2019-03-30T09:21:53.275Z,13.80
2019-03-30T09:24:24.135Z,13.70
2019-03-30T09:26:55.037Z,13.90
2019-03-30T09:29:25.935Z,14.20
2019-03-30T09:31:56.859Z,14.30
2019-03-30T09:34:27.718Z,14.20
2019-03-30T09:36:58.594Z,14.60
2019-03-30T09:39:29.465Z,14.70
2019-03-30T09:42:00.388Z,14.70
2019-03-30T09:44:31.270Z,14.80
2019-03-30T09:47:02.153Z,15.00
2019-03-30T09:49:33.094Z,15.10
2019-03-30T09:52:04.063Z,15.30
2019-03-30T09:54:34.903Z,15.50
2019-03-30T09:57:05.844Z,15.70
2019-03-30T09:59:36.761Z,16.00
2019-03-30T10:02:07.687Z,15.80
2019-03-30T10:04:38.692Z,15.80
2019-03-30T10:07:09.622Z,15.90
2019-03-30T10:09:40.475Z,16.10
2019-03-30T10:12:13.915Z,16.30
2019-03-30T10:14:44.765Z,16.20
2019-03-30T10:17:15.766Z,16.40
2019-03-30T10:19:53.130Z,16.50
2019-03-30T10:22:19.186Z,16.70
2019-03-30T10:24:50.043Z,17.00
2019-03-30T10:27:20.929Z,17.30
2019-03-30T10:29:51.803Z,17.50
2019-03-30T10:32:23.783Z,17.00
2019-03-30T10:34:54.702Z,17.30
2019-03-30T10:37:25.608Z,17.00
2019-03-30T10:39:56.509Z,16.90
2019-03-30T10:42:27.423Z,17.30
2019-03-30T10:44:58.302Z,17.50
2019-03-30T10:47:29.234Z,17.60
2019-03-30T10:50:00.115Z,17.70
2019-03-30T10:52:31.157Z,17.70
2019-03-30T10:55:02.009Z,18.00
2019-03-30T10:57:32.907Z,18.10
2019-03-30T11:00:03.907Z,18.20
2019-03-30T11:02:35.757Z,18.10
2019-03-30T11:05:06.967Z,18.20
2019-03-30T11:07:37.903Z,18.40
2019-03-30T11:10:09.133Z,18.30
2019-03-30T11:12:40.053Z,18.30
2019-03-30T11:15:11.002Z,18.50
2019-03-30T11:17:41.932Z,18.00
2019-03-30T11:20:12.905Z,18.30
2019-03-30T11:22:43.788Z,18.60
2019-03-30T11:25:15.615Z,18.90
2019-03-30T11:27:46.525Z,18.90
2019-03-30T11:30:17.385Z,19.10
2019-03-30T11:32:48.333Z,19.30
2019-03-30T11:35:19.239Z,19.00
2019-03-30T11:37:50.252Z,19.30
2019-03-30T11:40:21.161Z,19.00
2019-03-30T11:42:52.124Z,19.20
2019-03-30T11:45:22.989Z,18.90
2019-03-30T11:47:53.898Z,18.50
2019-03-30T11:50:24.759Z,18.10
2019-03-30T11:52:55.693Z,18.00
2019-03-30T11:55:26.543Z,18.10
2019-03-30T11:57:57.421Z,18.30
2019-03-30T12:00:28.325Z,18.90
2019-03-30T12:02:59.255Z,18.50
2019-03-30T12:05:30.109Z,18.80
2019-03-30T12:08:00.993Z,18.90
2019-03-30T12:10:31.827Z,19.00
2019-03-30T12:13:02.715Z,19.00
2019-03-30T12:15:33.803Z,19.00
2019-03-30T12:18:04.727Z,18.80
2019-03-30T12:20:35.569Z,18.60
2019-03-30T12:23:06.444Z,18.70
2019-03-30T12:25:37.325Z,18.60
2019-03-30T12:28:08.188Z,18.20
2019-03-30T12:30:39.062Z,18.50
2019-03-30T12:33:09.922Z,18.40
2019-03-30T12:35:40.783Z,18.40
2019-03-30T12:38:11.690Z,18.40
2019-03-30T12:40:42.553Z,18.30
2019-03-30T12:43:13.485Z,18.40
2019-03-30T12:45:44.357Z,18.10
2019-03-30T12:48:15.305Z,18.20
2019-03-30T12:50:46.149Z,18.30
2019-03-30T12:53:17.038Z,18.10
2019-03-30T12:58:20.427Z,18.00
2019-03-30T13:00:51.488Z,18.20
2019-03-30T13:03:22.327Z,18.30
2019-03-30T13:05:53.229Z,18.30
2019-03-30T13:08:24.098Z,18.10
2019-03-30T13:10:54.951Z,17.80
2019-03-30T13:13:25.838Z,18.20
2019-03-30T13:15:56.735Z,18.40
2019-03-30T13:18:27.559Z,18.50
2019-03-30T13:20:58.439Z,18.70
2019-03-30T13:23:29.296Z,18.50
2019-03-30T13:26:03.932Z,18.50
2019-03-30T13:28:32.682Z,18.30
2019-03-30T13:31:03.581Z,18.30
2019-03-30T13:33:34.481Z,18.40
2019-03-30T13:36:05.652Z,18.40
2019-03-30T13:38:36.532Z,18.30
2019-03-30T13:41:07.447Z,18.40
2019-03-30T13:43:38.318Z,18.50
2019-03-30T13:46:09.246Z,18.40
2019-03-30T13:48:40.104Z,18.40
2019-03-30T13:51:10.976Z,18.60
2019-03-30T13:53:41.796Z,18.50
2019-03-30T13:56:17.528Z,18.60
2019-03-30T13:58:46.145Z,18.50
2019-03-30T14:01:17.044Z,18.40
2019-03-30T14:03:47.900Z,18.20
2019-03-30T14:06:18.772Z,18.00
2019-03-30T14:08:49.625Z,17.90
2019-03-30T14:11:20.524Z,17.90
2019-03-30T14:13:51.387Z,17.90
2019-03-30T14:16:23.274Z,17.90
2019-03-30T14:18:54.173Z,17.60
2019-03-30T14:21:25.068Z,17.60
2019-03-30T14:23:55.924Z,17.60
2019-03-30T14:26:31.507Z,17.50
2019-03-30T14:28:59.409Z,17.20
2019-03-30T14:31:30.325Z,17.10
2019-03-30T14:34:01.139Z,17.00
2019-03-30T14:36:32.031Z,17.00
2019-03-30T14:39:03.998Z,17.10
2019-03-30T14:41:34.966Z,17.20
2019-03-30T14:44:05.798Z,17.30
2019-03-30T14:46:36.686Z,17.20
2019-03-30T14:49:07.571Z,17.10
2019-03-30T14:51:39.480Z,17.10
2019-03-30T14:54:10.326Z,16.80
2019-03-30T14:56:45.906Z,16.70
2019-03-30T14:59:14.590Z,16.80
2019-03-30T15:01:45.515Z,16.90
2019-03-30T15:04:16.430Z,17.00
2019-03-30T15:06:47.280Z,16.80
2019-03-30T15:09:18.164Z,16.80
2019-03-30T15:11:49.066Z,16.90
2019-03-30T15:14:19.950Z,16.90
2019-03-30T15:16:50.886Z,16.80
2019-03-30T15:19:21.810Z,16.90
2019-03-30T15:21:52.716Z,16.90
2019-03-30T15:24:23.610Z,16.80
2019-03-30T15:27:00.381Z,16.70
2019-03-30T15:29:27.165Z,16.70
2019-03-30T15:31:58.094Z,16.80
2019-03-30T15:34:28.974Z,16.70
2019-03-30T15:36:59.874Z,16.70
2019-03-30T15:39:30.759Z,16.60
2019-03-30T15:42:01.754Z,16.70
2019-03-30T15:44:32.672Z,16.70
2019-03-30T15:47:03.590Z,16.60
2019-03-30T15:49:34.476Z,16.60
2019-03-30T15:52:13.892Z,16.70
2019-03-30T15:54:37.914Z,16.70
2019-03-30T15:57:14.340Z,16.60
2019-03-30T15:59:41.462Z,16.50
2019-03-30T16:02:12.308Z,16.50
2019-03-30T16:04:44.174Z,16.50
2019-03-30T16:07:15.209Z,16.40
2019-03-30T16:09:46.149Z,16.30
2019-03-30T16:12:17.079Z,16.20
2019-03-30T16:14:47.970Z,16.20
2019-03-30T16:17:19.113Z,16.20
2019-03-30T16:19:49.983Z,16.10
2019-03-30T16:22:20.945Z,16.00
2019-03-30T16:24:51.776Z,16.00
2019-03-30T16:27:29.062Z,16.00
2019-03-30T16:29:58.474Z,15.90
2019-03-30T16:32:27.721Z,15.80
2019-03-30T16:34:58.587Z,15.80
2019-03-30T16:37:29.489Z,15.80
2019-03-30T16:40:00.508Z,15.80
2019-03-30T16:42:31.386Z,15.70
2019-03-30T16:45:03.214Z,15.70
2019-03-30T16:47:34.294Z,15.60
2019-03-30T16:50:05.721Z,15.60
2019-03-30T16:52:36.704Z,15.50
2019-03-30T16:55:07.607Z,15.50
2019-03-30T16:57:43.583Z,15.40
2019-03-30T17:00:11.480Z,15.40
2019-03-30T17:02:42.402Z,15.30
2019-03-30T17:05:13.469Z,15.30
2019-03-30T17:07:45.346Z,15.30
2019-03-30T17:10:16.246Z,15.20
2019-03-30T17:12:47.250Z,15.20
2019-03-30T17:15:20.404Z,15.10
2019-03-30T17:17:51.348Z,15.10
2019-03-30T17:20:22.230Z,15.10
2019-03-30T17:22:53.228Z,15.00
2019-03-30T17:25:24.174Z,15.00
2019-03-30T17:27:58.481Z,14.90
2019-03-30T17:30:27.720Z,14.90
2019-03-30T17:32:58.681Z,14.80
2019-03-30T17:35:29.537Z,14.80
2019-03-30T17:38:00.425Z,14.80
2019-03-30T17:40:31.368Z,14.70
2019-03-30T17:43:02.309Z,14.80
2019-03-30T17:45:33.214Z,14.70
2019-03-30T17:48:04.133Z,14.70
2019-03-30T17:50:35.982Z,14.70
2019-03-30T17:53:06.880Z,14.60
2019-03-30T17:55:37.749Z,14.60
2019-03-30T17:58:13.331Z,14.50
2019-03-30T18:00:41.167Z,14.50
2019-03-30T18:03:12.061Z,14.40
2019-03-30T18:05:42.940Z,14.30
2019-03-30T18:08:13.943Z,14.30
2019-03-30T18:10:44.908Z,14.30
2019-03-30T18:13:15.832Z,14.20
2019-03-30T18:15:46.716Z,14.00
2019-03-30T18:18:17.723Z,14.00
2019-03-30T18:20:48.594Z,13.80
2019-03-30T18:23:19.527Z,13.70
2019-03-30T18:25:50.483Z,13.70
2019-03-30T18:28:27.375Z,13.60
2019-03-30T18:30:55.043Z,13.60
2019-03-30T18:33:26.554Z,13.60
2019-03-30T18:35:57.710Z,13.50
2019-03-30T18:38:28.956Z,13.40
2019-03-30T18:40:59.820Z,13.30
2019-03-30T18:43:31.287Z,13.20
2019-03-30T18:46:02.119Z,13.10
2019-03-30T18:48:33.033Z,13.10
2019-03-30T18:51:03.912Z,13.00
2019-03-30T18:53:35.490Z,12.90
2019-03-30T18:56:06.373Z,12.90
2019-03-30T18:58:41.948Z,12.80
2019-03-30T19:01:10.217Z,12.70
2019-03-30T19:03:41.614Z,12.70
2019-03-30T19:06:12.699Z,12.50
2019-03-30T19:08:43.901Z,12.50
2019-03-30T19:11:15.044Z,12.40
2019-03-30T19:13:46.192Z,12.40
2019-03-30T19:16:17.391Z,12.30
2019-03-30T19:18:48.518Z,12.30
2019-03-30T19:21:19.716Z,12.20
2019-03-30T19:23:50.912Z,12.20
2019-03-30T19:26:22.331Z,12.20
2019-03-30T19:28:56.555Z,12.20
2019-03-30T19:31:25.920Z,12.10
2019-03-30T19:33:56.859Z,12.10
2019-03-30T19:36:27.805Z,12.00
2019-03-30T19:38:58.736Z,11.90
2019-03-30T19:41:29.661Z,11.80
2019-03-30T19:44:00.677Z,11.80
2019-03-30T19:46:31.633Z,11.80
2019-03-30T19:49:02.557Z,11.70
2019-03-30T19:51:33.522Z,11.70
2019-03-30T19:54:04.406Z,11.70
2019-03-30T19:56:35.378Z,11.70
2019-03-30T19:59:11.125Z,11.60
2019-03-30T20:01:39.246Z,11.50
2019-03-30T20:04:10.233Z,11.40
2019-03-30T20:06:41.395Z,11.30
2019-03-30T20:09:12.386Z,11.30
2019-03-30T20:11:43.924Z,11.30
2019-03-30T20:14:18.930Z,11.30
2019-03-30T20:16:49.865Z,11.30
2019-03-30T20:19:20.832Z,11.10
2019-03-30T20:21:51.775Z,11.00
2019-03-30T20:24:22.671Z,11.00
2019-03-30T20:26:53.572Z,11.00
2019-03-30T20:29:25.794Z,11.00
2019-03-30T20:31:56.901Z,10.90
2019-03-30T20:34:27.864Z,10.80
2019-03-30T20:36:58.792Z,10.70
2019-03-30T20:39:29.768Z,10.70
2019-03-30T20:42:00.792Z,10.70
2019-03-30T20:44:31.701Z,10.70
2019-03-30T20:47:02.559Z,10.60
2019-03-30T20:49:33.576Z,10.60
2019-03-30T20:52:04.496Z,10.60
2019-03-30T20:54:35.410Z,10.50
2019-03-30T20:57:06.266Z,10.40
2019-03-30T20:59:40.193Z,10.50
2019-03-30T21:02:09.682Z,10.40
2019-03-30T21:04:40.594Z,10.50
2019-03-30T21:07:11.480Z,10.40
2019-03-30T21:09:42.409Z,10.30
2019-03-30T21:12:13.292Z,10.30
2019-03-30T21:14:44.191Z,10.20
2019-03-30T21:17:15.062Z,10.20
2019-03-30T21:19:45.993Z,10.10
2019-03-30T21:22:16.841Z,10.00
2019-03-30T21:24:47.784Z,10.00
2019-03-30T21:27:18.648Z,10.00
2019-03-30T21:29:54.806Z,9.90
2019-03-30T21:32:22.015Z,9.90
2019-03-30T21:34:52.914Z,9.90
2019-03-30T21:37:23.790Z,9.90
2019-03-30T21:39:54.666Z,9.90
2019-03-30T21:42:25.586Z,9.80
2019-03-30T21:44:56.496Z,9.80
2019-03-30T21:47:27.344Z,9.80
2019-03-30T21:49:58.292Z,9.80
2019-03-30T21:52:29.266Z,9.80
2019-03-30T21:55:00.381Z,9.80
2019-03-30T21:57:31.225Z,9.80
2019-03-30T22:00:09.969Z,9.80
2019-03-30T22:02:35.288Z,9.70
2019-03-30T22:05:06.655Z,9.70
2019-03-30T22:07:38.530Z,9.70
2019-03-30T22:10:09.671Z,9.70
2019-03-30T22:12:43.614Z,9.70
2019-03-30T22:15:17.893Z,9.60
2019-03-30T22:17:49.143Z,9.60
2019-03-30T22:20:21.415Z,9.50
2019-03-30T22:22:52.397Z,9.40
2019-03-30T22:25:23.288Z,9.40
2019-03-30T22:27:54.176Z,9.40
2019-03-30T22:30:25.545Z,9.40
2019-03-30T22:32:56.431Z,9.40
2019-03-30T22:35:27.321Z,9.40
2019-03-30T22:37:58.222Z,9.40
2019-03-30T22:40:29.156Z,9.30
2019-03-30T22:43:00.038Z,9.40
2019-03-30T22:45:30.945Z,9.30
2019-03-30T22:48:02.759Z,9.30
2019-03-30T22:50:33.740Z,9.30
2019-03-30T22:53:04.599Z,9.30
2019-03-30T22:55:35.490Z,9.30
2019-03-30T22:58:06.356Z,9.20
2019-03-30T23:00:54.967Z,9.20
2019-03-30T23:03:26.123Z,9.10
2019-03-30T23:05:57.096Z,9.10
2019-03-30T23:08:28.038Z,9.10
2019-03-30T23:10:58.935Z,9.00
2019-03-30T23:13:29.780Z,9.00
2019-03-30T23:16:01.086Z,9.00
2019-03-30T23:18:31.941Z,9.00
2019-03-30T23:21:02.836Z,9.00
2019-03-30T23:23:33.688Z,8.90
2019-03-30T23:26:04.648Z,8.80
2019-03-30T23:28:35.498Z,8.90
2019-03-30T23:31:06.466Z,8.80
2019-03-30T23:33:37.384Z,8.80
2019-03-30T23:36:08.273Z,8.70
2019-03-30T23:38:39.183Z,8.70
2019-03-30T23:41:10.075Z,8.70
2019-03-30T23:43:40.956Z,8.70
2019-03-30T23:46:11.884Z,8.70
2019-03-30T23:48:42.743Z,8.70
2019-03-30T23:51:13.671Z,8.70
2019-03-30T23:53:44.532Z,8.60
2019-03-30T23:56:26.353Z,8.60
2019-03-30T23:58:57.210Z,8.60
